createdAt,value
2018-05-21T00:00:55.540Z,13.52
2018-05-21T00:01:55.137Z,13.49
2018-05-21T00:03:17.429Z,13.47
2018-05-21T00:04:39.665Z,13.44
2018-05-21T00:06:02.063Z,13.42
2018-05-21T00:07:03.464Z,13.41
2018-05-21T00:08:01.969Z,13.41
2018-05-21T00:09:03.071Z,13.42
2018-05-21T00:10:02.958Z,13.41
2018-05-21T00:11:02.667Z,13.39
2018-05-21T00:12:02.505Z,13.33
2018-05-21T00:13:02.265Z,13.30
2018-05-21T00:14:02.263Z,13.27
2018-05-21T00:15:01.910Z,13.22
2018-05-21T00:16:02.943Z,13.20
2018-05-21T00:17:02.814Z,13.16
2018-05-21T00:18:02.465Z,13.16
2018-05-21T00:19:01.989Z,13.13
2018-05-21T00:20:03.379Z,13.13
2018-05-21T00:21:01.898Z,13.11
2018-05-21T00:22:02.372Z,13.09
2018-05-21T00:23:23.160Z,13.05
2018-05-21T00:24:23.859Z,13.04
2018-05-21T00:25:23.414Z,13.04
2018-05-21T00:26:23.959Z,13.01
2018-05-21T00:27:23.599Z,12.98
2018-05-21T00:28:23.917Z,12.98
2018-05-21T00:29:23.892Z,12.97
2018-05-21T00:30:23.278Z,12.93
2018-05-21T00:31:23.656Z,12.93
2018-05-21T00:32:23.938Z,12.90
2018-05-21T00:33:23.670Z,12.87
2018-05-21T00:34:24.349Z,12.83
2018-05-21T00:35:24.072Z,12.82
2018-05-21T00:36:23.654Z,12.80
2018-05-21T00:37:24.291Z,12.80
2018-05-21T00:38:24.401Z,12.76
2018-05-21T00:39:45.418Z,12.76
2018-05-21T00:40:46.118Z,12.75
2018-05-21T00:41:45.676Z,12.75
2018-05-21T00:42:46.388Z,12.75
2018-05-21T00:43:46.123Z,12.75
2018-05-21T00:44:45.800Z,12.75
2018-05-21T00:45:46.057Z,12.73
2018-05-21T00:46:45.709Z,12.70
2018-05-21T00:47:46.364Z,12.67
2018-05-21T00:48:45.832Z,12.67
2018-05-21T00:50:06.617Z,12.67
2018-05-21T00:51:07.217Z,12.65
2018-05-21T00:52:28.098Z,12.64
2018-05-21T00:53:28.617Z,12.64
2018-05-21T00:54:28.354Z,12.64
2018-05-21T00:55:29.250Z,12.60
2018-05-21T00:56:28.949Z,12.55
2018-05-21T00:57:28.831Z,12.49
2018-05-21T00:58:28.185Z,12.49
2018-05-21T00:59:28.730Z,12.47
2018-05-21T01:00:28.705Z,12.43
2018-05-21T01:01:28.505Z,12.42
2018-05-21T01:02:28.352Z,12.39
2018-05-21T01:03:50.177Z,12.36
2018-05-21T01:04:50.747Z,12.36
2018-05-21T01:05:50.243Z,12.35
2018-05-21T01:06:50.691Z,12.35
2018-05-21T01:07:50.519Z,12.31
2018-05-21T01:08:51.147Z,12.29
2018-05-21T01:09:50.844Z,12.28
2018-05-21T01:10:50.572Z,12.25
2018-05-21T01:11:50.028Z,12.25
2018-05-21T01:12:50.618Z,12.25
2018-05-21T01:13:50.139Z,12.25
2018-05-21T01:14:50.677Z,12.27
2018-05-21T01:15:50.417Z,12.27
2018-05-21T01:16:51.399Z,12.28
2018-05-21T01:17:50.887Z,12.29
2018-05-21T01:18:50.501Z,12.28
2018-05-21T01:19:50.194Z,12.27
2018-05-21T01:20:50.819Z,12.28
2018-05-21T01:22:33.185Z,12.28
2018-05-21T01:23:33.756Z,12.25
2018-05-21T01:25:17.725Z,12.21
2018-05-21T01:26:18.336Z,12.21
2018-05-21T01:27:18.091Z,12.21
2018-05-21T01:28:39.324Z,12.18
2018-05-21T01:29:40.042Z,12.17
2018-05-21T01:30:40.509Z,12.17
2018-05-21T01:31:39.317Z,12.17
2018-05-21T01:33:01.230Z,12.17
2018-05-21T01:34:02.179Z,12.18
2018-05-21T01:35:01.918Z,12.17
2018-05-21T01:36:01.653Z,12.15
2018-05-21T01:37:01.147Z,12.13
2018-05-21T01:38:01.565Z,12.13
2018-05-21T01:39:24.635Z,12.12
2018-05-21T01:40:24.087Z,12.10
2018-05-21T01:41:24.550Z,12.10
2018-05-21T01:42:24.094Z,12.09
2018-05-21T01:43:50.132Z,12.10
2018-05-21T01:44:47.752Z,12.06
2018-05-21T01:45:47.325Z,12.03
2018-05-21T01:46:47.923Z,12.03
2018-05-21T01:47:47.620Z,12.02
2018-05-21T01:48:48.175Z,12.06
2018-05-21T01:49:47.772Z,12.07
2018-05-21T01:50:48.707Z,12.07
2018-05-21T01:51:47.102Z,12.09
2018-05-21T01:52:48.408Z,12.07
2018-05-21T01:53:47.890Z,12.07
2018-05-21T01:54:47.360Z,12.04
2018-05-21T01:55:48.029Z,12.00
2018-05-21T01:56:47.349Z,11.99
2018-05-21T01:57:48.018Z,11.97
2018-05-21T01:58:47.322Z,11.99
2018-05-21T01:59:48.474Z,11.99
2018-05-21T02:00:48.249Z,12.00
2018-05-21T02:01:47.945Z,12.00
2018-05-21T02:02:47.501Z,12.00
2018-05-21T02:03:48.279Z,12.02
2018-05-21T02:04:47.678Z,11.97
2018-05-21T02:05:48.117Z,11.99
2018-05-21T02:06:47.481Z,11.97
2018-05-21T02:07:47.693Z,11.94
2018-05-21T02:08:48.330Z,11.94
2018-05-21T02:09:47.938Z,11.90
2018-05-21T02:10:47.510Z,11.87
2018-05-21T02:11:47.827Z,11.84
2018-05-21T02:12:47.398Z,11.80
2018-05-21T02:14:30.788Z,11.83
2018-05-21T02:15:31.429Z,11.83
2018-05-21T02:16:30.794Z,11.83
2018-05-21T02:17:31.147Z,11.83
2018-05-21T02:18:31.960Z,11.84
2018-05-21T02:19:31.765Z,11.84
2018-05-21T02:20:52.653Z,11.84
2018-05-21T02:21:52.935Z,11.83
2018-05-21T02:23:15.282Z,11.83
2018-05-21T02:24:16.310Z,11.81
2018-05-21T02:25:15.816Z,11.81
2018-05-21T02:26:16.414Z,11.81
2018-05-21T02:27:19.714Z,11.83
2018-05-21T02:28:40.729Z,11.81
2018-05-21T02:29:40.132Z,11.80
2018-05-21T02:30:39.653Z,11.78
2018-05-21T02:32:05.188Z,11.80
2018-05-21T02:33:03.942Z,11.81
2018-05-21T02:34:03.402Z,11.81
2018-05-21T02:35:05.025Z,11.80
2018-05-21T02:36:03.890Z,11.78
2018-05-21T02:37:26.391Z,11.78
2018-05-21T02:38:26.094Z,11.77
2018-05-21T02:39:25.995Z,11.77
2018-05-21T02:40:25.602Z,11.73
2018-05-21T02:41:46.553Z,11.70
2018-05-21T02:42:47.111Z,11.70
2018-05-21T02:44:09.400Z,11.72
2018-05-21T02:45:10.226Z,11.70
2018-05-21T02:46:09.621Z,11.72
2018-05-21T02:47:30.890Z,11.72
2018-05-21T02:48:31.426Z,11.70
2018-05-21T02:49:31.250Z,11.69
2018-05-21T02:50:31.913Z,11.68
2018-05-21T02:51:31.668Z,11.69
2018-05-21T02:52:31.192Z,11.66
2018-05-21T02:53:30.758Z,11.65
2018-05-21T02:54:32.178Z,11.63
2018-05-21T02:55:31.876Z,11.60
2018-05-21T02:56:31.377Z,11.57
2018-05-21T02:57:30.952Z,11.55
2018-05-21T02:58:31.788Z,11.54
2018-05-21T02:59:31.382Z,11.51
2018-05-21T03:00:31.156Z,11.52
2018-05-21T03:01:53.135Z,11.50
2018-05-21T03:02:53.500Z,11.48
2018-05-21T03:03:54.071Z,11.45
2018-05-21T03:04:53.912Z,11.44
2018-05-21T03:05:53.509Z,11.43
2018-05-21T03:06:54.341Z,11.43
2018-05-21T03:07:53.767Z,11.40
2018-05-21T03:08:53.475Z,11.40
2018-05-21T03:09:54.318Z,11.40
2018-05-21T03:10:53.777Z,11.40
2018-05-21T03:11:53.273Z,11.37
2018-05-21T03:12:53.754Z,11.36
2018-05-21T03:13:53.613Z,11.35
2018-05-21T03:14:54.187Z,11.32
2018-05-21T03:15:53.656Z,11.32
2018-05-21T03:16:54.563Z,11.30
2018-05-21T03:17:54.337Z,11.26
2018-05-21T03:18:53.860Z,11.23
2018-05-21T03:19:53.449Z,11.23
2018-05-21T03:21:15.325Z,11.19
2018-05-21T03:22:16.126Z,11.17
2018-05-21T03:23:15.611Z,11.15
2018-05-21T03:24:16.335Z,11.14
2018-05-21T03:25:15.809Z,11.11
2018-05-21T03:26:15.233Z,11.11
2018-05-21T03:27:15.631Z,11.10
2018-05-21T03:28:16.066Z,11.10
2018-05-21T03:29:15.577Z,11.08
2018-05-21T03:30:16.272Z,11.10
2018-05-21T03:31:37.170Z,11.14
2018-05-21T03:32:37.749Z,11.14
2018-05-21T03:33:37.486Z,11.14
2018-05-21T03:34:37.944Z,11.12
2018-05-21T03:35:38.011Z,11.12
2018-05-21T03:36:37.848Z,11.12
2018-05-21T03:37:37.577Z,11.11
2018-05-21T03:38:37.568Z,11.10
2018-05-21T03:39:38.481Z,11.10
2018-05-21T03:40:38.363Z,11.08
2018-05-21T03:42:20.477Z,11.11
2018-05-21T03:43:21.015Z,11.11
2018-05-21T03:44:20.526Z,11.12
2018-05-21T03:45:20.901Z,11.12
2018-05-21T03:46:42.173Z,11.14
2018-05-21T03:47:42.967Z,11.14
2018-05-21T03:48:42.376Z,11.17
2018-05-21T03:49:42.735Z,11.18
2018-05-21T03:51:04.042Z,11.18
2018-05-21T03:52:04.611Z,11.18
2018-05-21T03:53:04.430Z,11.22
2018-05-21T03:54:04.380Z,11.23
2018-05-21T03:55:04.423Z,11.23
2018-05-21T03:56:04.634Z,11.25
2018-05-21T03:57:04.470Z,11.25
2018-05-21T03:58:04.184Z,11.25
2018-05-21T03:59:04.006Z,11.27
2018-05-21T04:00:04.864Z,11.27
2018-05-21T04:01:04.513Z,11.29
2018-05-21T04:02:04.332Z,11.27
2018-05-21T04:03:04.447Z,11.29
2018-05-21T04:04:04.550Z,11.27
2018-05-21T04:05:04.558Z,11.27
2018-05-21T04:06:04.462Z,11.27
2018-05-21T04:07:03.912Z,11.29
2018-05-21T04:08:04.508Z,11.29
2018-05-21T04:09:04.411Z,11.30
2018-05-21T04:10:03.970Z,11.32
2018-05-21T04:11:04.972Z,11.33
2018-05-21T04:12:26.381Z,11.36
2018-05-21T04:13:26.103Z,11.36
2018-05-21T04:14:27.816Z,11.40
2018-05-21T04:15:26.479Z,11.43
2018-05-21T04:16:26.512Z,11.43
2018-05-21T04:18:33.246Z,11.43
2018-05-21T04:19:54.963Z,11.45
2018-05-21T04:20:55.789Z,11.44
2018-05-21T04:21:55.528Z,11.47
2018-05-21T04:22:55.449Z,11.45
2018-05-21T04:23:55.296Z,11.48
2018-05-21T04:24:55.306Z,11.50
2018-05-21T04:25:55.280Z,11.52
2018-05-21T04:26:55.489Z,11.57
2018-05-21T04:27:55.286Z,11.62
2018-05-21T04:28:54.684Z,11.80
2018-05-21T04:30:38.142Z,12.12
2018-05-21T04:31:39.036Z,12.32
2018-05-21T04:32:38.800Z,12.49
2018-05-21T04:33:38.346Z,12.67
2018-05-21T04:34:37.813Z,12.82
2018-05-21T04:35:38.827Z,12.93
2018-05-21T04:36:38.552Z,13.05
2018-05-21T04:37:38.077Z,13.16
2018-05-21T04:38:59.847Z,13.35
2018-05-21T04:40:00.827Z,13.50
2018-05-21T04:41:00.327Z,13.59
2018-05-21T04:42:00.013Z,13.70
2018-05-21T04:43:00.654Z,13.74
2018-05-21T04:44:00.078Z,13.68
2018-05-21T04:45:00.050Z,13.71
2018-05-21T04:46:00.781Z,13.83
2018-05-21T04:47:00.308Z,13.96
2018-05-21T04:48:00.069Z,14.10
2018-05-21T04:49:00.915Z,14.14
2018-05-21T04:50:00.636Z,14.23
2018-05-21T04:51:00.353Z,14.30
2018-05-21T04:52:00.149Z,14.33
2018-05-21T04:53:00.274Z,14.32
2018-05-21T04:53:59.919Z,14.15
2018-05-21T04:55:21.911Z,13.85
2018-05-21T04:56:44.050Z,13.79
2018-05-21T04:57:45.430Z,13.74
2018-05-21T04:58:44.143Z,13.60
2018-05-21T05:00:26.661Z,13.53
2018-05-21T05:01:27.750Z,13.60
2018-05-21T05:02:27.401Z,13.57
2018-05-21T05:03:27.440Z,13.49
2018-05-21T05:04:27.189Z,13.41
2018-05-21T05:05:26.923Z,13.38
2018-05-21T05:06:27.609Z,13.33
2018-05-21T05:07:27.095Z,13.28
2018-05-21T05:08:26.656Z,13.20
2018-05-21T05:10:31.563Z,13.09
2018-05-21T05:11:32.159Z,13.03
2018-05-21T05:12:53.066Z,13.03
2018-05-21T05:13:54.412Z,13.03
2018-05-21T05:14:54.892Z,13.01
2018-05-21T05:15:53.843Z,13.15
2018-05-21T05:16:53.680Z,13.38
2018-05-21T05:17:53.537Z,13.60
2018-05-21T05:18:53.522Z,13.92
2018-05-21T05:20:15.267Z,14.41
2018-05-21T05:21:37.383Z,14.81
2018-05-21T05:22:37.947Z,14.97
2018-05-21T05:23:37.935Z,15.03
2018-05-21T05:24:37.891Z,15.22
2018-05-21T05:25:59.505Z,15.51
2018-05-21T05:27:00.331Z,15.75
2018-05-21T05:28:00.268Z,15.88
2018-05-21T05:29:00.346Z,16.13
2018-05-21T05:30:00.318Z,16.36
2018-05-21T05:31:00.229Z,16.54
2018-05-21T05:32:00.994Z,16.58
2018-05-21T05:32:59.769Z,16.72
2018-05-21T05:33:59.690Z,16.86
2018-05-21T05:34:59.249Z,16.93
2018-05-21T05:36:00.213Z,16.97
2018-05-21T05:37:00.252Z,17.02
2018-05-21T05:38:00.085Z,17.02
2018-05-21T05:38:59.991Z,17.29
2018-05-21T05:40:00.238Z,17.48
2018-05-21T05:41:00.188Z,17.68
2018-05-21T05:41:59.954Z,17.87
2018-05-21T05:42:59.856Z,18.00
2018-05-21T05:43:59.815Z,18.07
2018-05-21T05:44:59.272Z,18.28
2018-05-21T05:45:59.878Z,18.20
2018-05-21T05:47:21.057Z,18.33
2018-05-21T05:48:21.787Z,18.28
2018-05-21T05:49:21.762Z,18.38
2018-05-21T05:50:21.670Z,18.52
2018-05-21T05:51:21.264Z,18.40
2018-05-21T05:52:42.606Z,18.52
2018-05-21T05:53:43.115Z,18.63
2018-05-21T05:54:43.008Z,18.89
2018-05-21T05:55:42.945Z,19.11
2018-05-21T05:56:42.759Z,19.19
2018-05-21T05:57:43.394Z,19.30
2018-05-21T05:58:43.069Z,19.36
2018-05-21T05:59:42.781Z,19.55
2018-05-21T06:00:43.765Z,19.64
2018-05-21T06:01:43.349Z,19.77
2018-05-21T06:02:44.192Z,20.03
2018-05-21T06:03:43.178Z,20.39
2018-05-21T06:04:42.797Z,20.50
2018-05-21T06:05:43.400Z,20.52
2018-05-21T06:06:43.062Z,20.56
2018-05-21T06:07:43.906Z,20.82
2018-05-21T06:08:43.546Z,20.96
2018-05-21T06:09:43.459Z,21.07
2018-05-21T06:10:43.232Z,21.32
2018-05-21T06:11:43.574Z,21.50
2018-05-21T06:12:43.233Z,21.60
2018-05-21T06:13:43.251Z,21.52
2018-05-21T06:14:43.282Z,21.66
2018-05-21T06:15:42.739Z,21.91
2018-05-21T06:16:43.671Z,21.99
2018-05-21T06:17:43.630Z,22.15
2018-05-21T06:18:43.649Z,22.28
2018-05-21T06:19:43.158Z,22.29
2018-05-21T06:20:43.015Z,22.39
2018-05-21T06:21:43.547Z,22.14
2018-05-21T06:22:43.537Z,21.96
2018-05-21T06:23:43.115Z,22.23
2018-05-21T06:24:42.803Z,22.47
2018-05-21T06:25:42.897Z,22.50
2018-05-21T06:26:43.726Z,22.36
2018-05-21T06:27:43.816Z,22.29
2018-05-21T06:28:43.427Z,22.48
2018-05-21T06:30:04.648Z,22.63
2018-05-21T06:31:05.296Z,22.51
2018-05-21T06:32:04.979Z,22.63
2018-05-21T06:33:04.857Z,22.83
2018-05-21T06:34:05.898Z,23.09
2018-05-21T06:35:04.682Z,23.06
2018-05-21T06:36:05.436Z,23.18
2018-05-21T06:37:40.470Z,23.24
2018-05-21T06:38:41.192Z,23.13
2018-05-21T06:39:40.069Z,23.08
2018-05-21T06:40:40.044Z,22.70
2018-05-21T06:42:02.036Z,22.25
2018-05-21T06:43:01.886Z,21.91
2018-05-21T06:44:01.730Z,21.82
2018-05-21T06:45:02.733Z,22.20
2018-05-21T06:46:02.477Z,22.62
2018-05-21T06:47:02.715Z,22.59
2018-05-21T06:48:23.948Z,22.80
2018-05-21T06:49:24.921Z,22.98
2018-05-21T06:50:24.931Z,22.99
2018-05-21T06:51:24.804Z,23.24
2018-05-21T06:52:24.760Z,23.21
2018-05-21T06:53:24.255Z,23.10
2018-05-21T06:54:25.167Z,23.18
2018-05-21T06:55:24.932Z,23.13
2018-05-21T06:56:24.711Z,23.39
2018-05-21T06:57:24.212Z,23.48
2018-05-21T06:58:25.104Z,23.46
2018-05-21T06:59:25.232Z,23.71
2018-05-21T07:00:24.795Z,23.95
2018-05-21T07:01:45.865Z,23.73
2018-05-21T07:02:46.691Z,23.66
2018-05-21T07:03:46.439Z,23.92
2018-05-21T07:04:46.984Z,23.77
2018-05-21T07:06:08.223Z,23.92
2018-05-21T07:07:07.871Z,24.03
2018-05-21T07:08:09.070Z,24.32
2018-05-21T07:09:30.309Z,24.33
2018-05-21T07:10:30.245Z,24.55
2018-05-21T07:11:29.884Z,24.86
2018-05-21T07:12:30.020Z,25.06
2018-05-21T07:13:29.934Z,24.58
2018-05-21T07:14:29.667Z,24.20
2018-05-21T07:15:30.621Z,24.26
2018-05-21T07:16:30.471Z,24.42
2018-05-21T07:17:30.024Z,24.29
2018-05-21T07:18:30.716Z,24.24
2018-05-21T07:19:30.400Z,24.45
2018-05-21T07:20:30.151Z,24.91
2018-05-21T07:21:51.666Z,24.96
2018-05-21T07:22:53.125Z,25.01
2018-05-21T07:23:52.809Z,24.92
2018-05-21T07:24:52.781Z,24.95
2018-05-21T07:25:52.130Z,25.22
2018-05-21T07:26:52.072Z,25.58
2018-05-21T07:27:52.147Z,25.85
2018-05-21T07:28:52.253Z,26.05
2018-05-21T07:29:51.980Z,26.06
2018-05-21T07:31:13.273Z,26.34
2018-05-21T07:32:35.517Z,26.59
2018-05-21T07:33:35.594Z,26.73
2018-05-21T07:34:35.534Z,26.78
2018-05-21T07:35:35.273Z,26.63
2018-05-21T07:36:36.694Z,26.73
2018-05-21T07:37:36.036Z,26.31
2018-05-21T07:38:35.815Z,26.38
2018-05-21T07:39:35.685Z,26.62
2018-05-21T07:40:57.447Z,26.85
2018-05-21T07:42:19.332Z,26.99
2018-05-21T07:43:41.042Z,27.26
2018-05-21T07:44:41.642Z,27.42
2018-05-21T07:45:41.274Z,27.47
2018-05-21T07:46:42.097Z,27.70
2018-05-21T07:47:41.723Z,27.78
2018-05-21T07:48:41.928Z,27.47
2018-05-21T07:50:03.562Z,27.12
2018-05-21T07:51:03.521Z,27.30
2018-05-21T07:52:03.236Z,27.55
2018-05-21T07:53:03.106Z,27.64
2018-05-21T07:54:04.080Z,27.20
2018-05-21T07:55:04.235Z,26.96
2018-05-21T07:56:05.027Z,26.59
2018-05-21T07:57:04.316Z,26.66
2018-05-21T07:58:04.118Z,26.88
2018-05-21T07:59:04.056Z,26.88
2018-05-21T08:00:04.133Z,26.45
2018-05-21T08:01:04.034Z,26.52
2018-05-21T08:02:04.176Z,26.55
2018-05-21T08:03:04.458Z,26.81
2018-05-21T08:04:26.291Z,27.11
2018-05-21T08:05:26.726Z,26.89
2018-05-21T08:06:28.624Z,26.80
2018-05-21T08:07:26.132Z,27.08
2018-05-21T08:08:26.914Z,27.37
2018-05-21T08:10:33.619Z,27.86
2018-05-21T08:11:34.455Z,28.14
2018-05-21T08:12:34.541Z,27.87
2018-05-21T08:13:34.700Z,27.73
2018-05-21T08:14:33.573Z,27.96
2018-05-21T08:15:34.305Z,28.19
2018-05-21T08:16:34.596Z,28.60
2018-05-21T08:17:34.523Z,28.85
2018-05-21T08:18:35.152Z,28.98
2018-05-21T08:19:37.002Z,28.89
2018-05-21T08:20:33.867Z,28.84
2018-05-21T08:21:33.552Z,28.74
2018-05-21T08:22:33.593Z,28.72
2018-05-21T08:23:34.653Z,28.54
2018-05-21T08:25:18.529Z,28.54
2018-05-21T08:26:19.451Z,28.19
2018-05-21T08:27:19.468Z,28.07
2018-05-21T08:28:41.284Z,27.98
2018-05-21T08:29:45.036Z,28.37
2018-05-21T08:30:41.759Z,28.91
2018-05-21T08:31:41.545Z,29.26
2018-05-21T08:32:41.415Z,29.65
2018-05-21T08:33:41.454Z,29.57
2018-05-21T08:34:41.401Z,29.65
2018-05-21T08:35:41.586Z,29.31
2018-05-21T08:36:41.207Z,29.05
2018-05-21T08:38:03.928Z,28.64
2018-05-21T08:39:04.793Z,29.10
2018-05-21T08:40:04.704Z,29.45
2018-05-21T08:41:04.547Z,29.59
2018-05-21T08:42:25.845Z,29.69
2018-05-21T08:43:25.958Z,29.14
2018-05-21T08:44:26.820Z,29.08
2018-05-21T08:45:26.547Z,29.23
2018-05-21T08:46:26.593Z,29.10
2018-05-21T08:47:27.279Z,29.26
2018-05-21T08:48:26.468Z,29.71
2018-05-21T08:49:27.078Z,30.02
2018-05-21T08:50:26.657Z,30.28
2018-05-21T08:52:31.410Z,29.73
2018-05-21T08:53:31.080Z,29.65
2018-05-21T08:54:31.908Z,29.82
2018-05-21T08:55:31.930Z,29.78
2018-05-21T08:56:32.429Z,29.61
2018-05-21T08:57:31.205Z,29.65
2018-05-21T08:58:32.455Z,29.63
2018-05-21T08:59:31.493Z,29.79
2018-05-21T09:00:31.657Z,29.86
2018-05-21T09:01:53.523Z,29.78
2018-05-21T09:02:54.545Z,29.26
2018-05-21T09:03:53.266Z,29.07
2018-05-21T09:04:54.156Z,29.20
2018-05-21T09:05:54.077Z,29.16
2018-05-21T09:06:55.047Z,29.22
2018-05-21T09:07:53.867Z,29.38
2018-05-21T09:08:53.811Z,29.17
2018-05-21T09:09:53.416Z,29.54
2018-05-21T09:10:54.040Z,29.71
2018-05-21T09:11:54.055Z,30.03
2018-05-21T09:12:54.181Z,30.18
2018-05-21T09:14:15.491Z,30.24
2018-05-21T09:15:37.847Z,30.05
2018-05-21T09:16:40.976Z,29.94
2018-05-21T09:17:38.235Z,29.51
2018-05-21T09:18:37.971Z,29.24
2018-05-21T09:19:39.002Z,29.35
2018-05-21T09:20:38.155Z,29.65
2018-05-21T09:21:38.137Z,29.61
2018-05-21T09:22:38.360Z,29.72
2018-05-21T09:23:38.614Z,29.73
2018-05-21T09:24:41.705Z,30.19
2018-05-21T09:25:38.418Z,30.75
2018-05-21T09:26:38.195Z,30.68
2018-05-21T09:27:37.873Z,30.85
2018-05-21T09:28:38.045Z,31.28
2018-05-21T09:29:38.050Z,31.76
2018-05-21T09:30:37.888Z,31.58
2018-05-21T09:31:38.711Z,31.24
2018-05-21T09:32:38.680Z,31.00
2018-05-21T09:33:38.420Z,30.75
2018-05-21T09:34:38.175Z,30.68
2018-05-21T09:36:00.726Z,30.83
2018-05-21T09:37:00.455Z,30.83
2018-05-21T09:38:01.869Z,30.73
2018-05-21T09:39:34.163Z,30.61
2018-05-21T09:40:32.878Z,30.65
2018-05-21T09:41:34.155Z,30.75
2018-05-21T09:42:55.546Z,30.54
2018-05-21T09:43:55.827Z,30.91
2018-05-21T09:44:56.170Z,31.06
2018-05-21T09:45:55.687Z,31.14
2018-05-21T09:46:56.009Z,31.36
2018-05-21T09:48:22.595Z,30.65
2018-05-21T09:49:20.592Z,31.00
2018-05-21T09:50:20.814Z,31.51
2018-05-21T09:51:20.771Z,32.00
2018-05-21T09:52:21.622Z,32.45
2018-05-21T09:53:41.995Z,32.29
2018-05-21T09:54:43.800Z,32.01
2018-05-21T09:55:44.411Z,31.44
2018-05-21T09:56:42.716Z,31.07
2018-05-21T09:57:42.626Z,31.42
2018-05-21T09:58:43.055Z,31.59
2018-05-21T09:59:43.707Z,31.28
2018-05-21T10:00:43.440Z,31.29
2018-05-21T10:01:42.863Z,31.12
2018-05-21T10:03:05.214Z,31.27
2018-05-21T10:04:05.331Z,31.27
2018-05-21T10:05:04.470Z,31.21
2018-05-21T10:06:04.431Z,31.06
2018-05-21T10:07:04.171Z,31.15
2018-05-21T10:08:05.152Z,31.36
2018-05-21T10:09:05.065Z,31.39
2018-05-21T10:10:06.432Z,31.43
2018-05-21T10:11:04.356Z,31.92
2018-05-21T10:12:05.380Z,31.97
2018-05-21T10:13:05.167Z,31.22
2018-05-21T10:14:05.231Z,30.66
2018-05-21T10:15:06.094Z,30.69
2018-05-21T10:16:05.035Z,30.72
2018-05-21T10:17:04.972Z,31.29
2018-05-21T10:18:06.083Z,31.37
2018-05-21T10:19:04.932Z,31.28
2018-05-21T10:20:05.010Z,31.44
2018-05-21T10:21:05.054Z,31.33
2018-05-21T10:22:05.260Z,31.12
2018-05-21T10:23:05.248Z,31.27
2018-05-21T10:24:05.614Z,31.56
2018-05-21T10:25:27.539Z,31.90
2018-05-21T10:26:27.631Z,32.26
2018-05-21T10:27:28.352Z,32.70
2018-05-21T10:28:27.390Z,32.73
2018-05-21T10:29:27.051Z,31.96
2018-05-21T10:30:26.857Z,31.80
2018-05-21T10:31:26.909Z,31.84
2018-05-21T10:32:29.109Z,31.78
2018-05-21T10:33:27.762Z,32.48
2018-05-21T10:34:28.058Z,32.40
2018-05-21T10:35:27.261Z,32.11
2018-05-21T10:36:26.907Z,31.90
2018-05-21T10:37:27.016Z,32.14
2018-05-21T10:38:27.185Z,32.08
2018-05-21T10:39:27.408Z,32.07
2018-05-21T10:40:27.385Z,32.09
2018-05-21T10:41:27.861Z,32.08
2018-05-21T10:42:27.610Z,31.84
2018-05-21T10:43:28.548Z,32.00
2018-05-21T10:44:27.780Z,32.34
2018-05-21T10:45:28.324Z,32.64
2018-05-21T10:46:27.087Z,32.51
2018-05-21T10:47:27.264Z,32.11
2018-05-21T10:48:28.034Z,31.76
2018-05-21T10:49:51.144Z,32.01
2018-05-21T10:51:36.151Z,31.76
2018-05-21T10:52:35.891Z,31.84
2018-05-21T10:53:36.847Z,31.40
2018-05-21T10:55:00.578Z,31.12
2018-05-21T10:56:01.066Z,31.42
2018-05-21T10:57:22.727Z,31.25
2018-05-21T10:58:23.764Z,31.46
2018-05-21T10:59:23.773Z,31.37
2018-05-21T11:00:23.411Z,31.05
2018-05-21T11:01:25.578Z,31.47
2018-05-21T11:02:23.553Z,31.94
2018-05-21T11:03:22.893Z,32.26
2018-05-21T11:04:23.386Z,32.12
2018-05-21T11:05:22.849Z,31.81
2018-05-21T11:06:25.873Z,31.80
2018-05-21T11:07:27.323Z,31.84
2018-05-21T11:08:48.419Z,31.51
2018-05-21T11:09:50.157Z,31.51
2018-05-21T11:11:33.419Z,31.25
2018-05-21T11:12:39.726Z,31.69
2018-05-21T11:13:52.264Z,32.21
2018-05-21T11:14:39.489Z,32.55
2018-05-21T11:15:39.755Z,32.36
2018-05-21T11:16:38.333Z,31.87
2018-05-21T11:17:43.816Z,31.77
2018-05-21T11:19:11.013Z,31.34
2018-05-21T11:20:44.463Z,31.22
2018-05-21T11:21:50.202Z,31.56
2018-05-21T11:23:38.203Z,32.40
2018-05-21T11:24:39.558Z,32.52
2018-05-21T11:25:38.454Z,32.64
2018-05-21T11:26:37.375Z,32.52
2018-05-21T11:27:37.046Z,32.90
2018-05-21T11:28:37.800Z,32.58
2018-05-21T11:30:00.844Z,31.97
2018-05-21T11:31:05.987Z,31.89
2018-05-21T11:32:01.450Z,31.71
2018-05-21T11:33:01.206Z,31.49
2018-05-21T11:33:59.948Z,31.42
2018-05-21T11:35:00.816Z,31.49
2018-05-21T11:36:00.523Z,31.76
2018-05-21T11:37:00.657Z,31.89
2018-05-21T11:38:00.581Z,31.62
2018-05-21T11:39:00.630Z,31.46
2018-05-21T11:40:21.620Z,31.54
2018-05-21T11:41:22.382Z,31.62
2018-05-21T11:42:26.626Z,31.46
2018-05-21T11:43:22.567Z,31.52
2018-05-21T11:44:22.404Z,31.62
2018-05-21T11:45:22.272Z,31.29
2018-05-21T11:47:53.866Z,31.15
2018-05-21T11:48:59.726Z,31.14
2018-05-21T11:53:21.572Z,31.94
2018-05-21T11:54:15.493Z,31.81
2018-05-21T11:55:15.477Z,31.14
2018-05-21T11:56:15.046Z,30.85
2018-05-21T11:57:16.906Z,30.77
2018-05-21T11:58:38.139Z,30.53
2018-05-21T11:59:38.687Z,31.06
2018-05-21T12:00:38.257Z,31.12
2018-05-21T12:01:38.152Z,31.24
2018-05-21T12:02:38.965Z,31.37
2018-05-21T12:03:38.034Z,31.46
2018-05-21T12:04:38.035Z,31.58
2018-05-21T12:05:38.176Z,31.58
2018-05-21T12:06:38.328Z,31.37
2018-05-21T12:07:37.584Z,31.29
2018-05-21T12:08:38.194Z,30.80
2018-05-21T12:09:38.090Z,30.59
2018-05-21T12:10:37.879Z,30.80
2018-05-21T12:11:37.979Z,30.75
2018-05-21T12:13:21.164Z,30.78
2018-05-21T12:14:21.031Z,31.24
2018-05-21T12:15:21.905Z,30.87
2018-05-21T12:16:22.754Z,30.39
2018-05-21T12:17:21.759Z,30.44
2018-05-21T12:18:43.598Z,30.90
2018-05-21T12:19:43.853Z,31.24
2018-05-21T12:20:43.637Z,30.85
2018-05-21T12:21:43.881Z,30.70
2018-05-21T12:22:43.856Z,30.78
2018-05-21T12:23:43.868Z,30.96
2018-05-21T12:24:43.765Z,30.85
2018-05-21T12:25:43.602Z,30.96
2018-05-21T12:26:44.761Z,31.24
2018-05-21T12:27:43.781Z,31.66
2018-05-21T12:28:44.745Z,31.61
2018-05-21T12:29:43.903Z,31.80
2018-05-21T12:30:46.675Z,31.74
2018-05-21T12:32:27.988Z,31.97
2018-05-21T12:33:28.584Z,32.30
2018-05-21T12:34:49.651Z,32.18
2018-05-21T12:35:50.844Z,31.84
2018-05-21T12:36:49.487Z,31.58
2018-05-21T12:37:50.888Z,31.29
2018-05-21T12:38:50.310Z,31.36
2018-05-21T12:39:50.596Z,31.51
2018-05-21T12:40:50.827Z,31.37
2018-05-21T12:42:11.990Z,31.06
2018-05-21T12:43:14.137Z,30.70
2018-05-21T12:44:36.749Z,30.62
2018-05-21T12:45:37.080Z,30.50
2018-05-21T12:46:37.298Z,30.78
2018-05-21T12:48:00.908Z,31.05
2018-05-21T12:48:59.655Z,30.85
2018-05-21T12:49:59.461Z,30.75
2018-05-21T12:51:00.429Z,30.48
2018-05-21T12:52:02.581Z,30.69
2018-05-21T12:52:59.600Z,30.75
2018-05-21T12:54:23.255Z,30.62
2018-05-21T12:55:23.294Z,30.90
2018-05-21T12:56:23.408Z,31.03
2018-05-21T12:57:46.247Z,30.92
2018-05-21T12:58:47.125Z,30.85
2018-05-21T12:59:46.793Z,30.73
2018-05-21T13:00:47.491Z,30.57
2018-05-21T13:01:49.849Z,30.30
2018-05-21T13:02:49.434Z,30.25
2018-05-21T13:03:47.030Z,30.61
2018-05-21T13:04:47.213Z,30.50
2018-05-21T13:05:46.401Z,30.19
2018-05-21T13:06:52.952Z,30.10
2018-05-21T13:07:48.070Z,30.23
2018-05-21T13:09:03.872Z,30.35
2018-05-21T13:10:26.017Z,30.43
2018-05-21T13:11:27.636Z,30.63
2018-05-21T13:12:27.331Z,30.66
2018-05-21T13:13:27.206Z,30.81
2018-05-21T13:14:26.503Z,30.92
2018-05-21T13:16:10.440Z,30.78
2018-05-21T13:17:33.199Z,30.31
2018-05-21T13:18:33.482Z,30.39
2018-05-21T13:19:33.389Z,30.72
2018-05-21T13:20:33.484Z,30.46
2018-05-21T13:21:35.440Z,30.06
2018-05-21T13:22:34.269Z,29.94
2018-05-21T13:23:33.630Z,29.61
2018-05-21T13:24:33.661Z,29.82
2018-05-21T13:25:33.510Z,30.02
2018-05-21T13:26:34.294Z,30.43
2018-05-21T13:27:34.852Z,30.72
2018-05-21T13:28:33.349Z,30.62
2018-05-21T13:29:33.864Z,30.39
2018-05-21T13:30:34.669Z,30.15
2018-05-21T13:31:34.237Z,29.95
2018-05-21T13:32:33.751Z,29.97
2018-05-21T13:33:33.720Z,30.19
2018-05-21T13:34:33.580Z,30.25
2018-05-21T13:35:34.178Z,30.50
2018-05-21T13:36:34.730Z,30.69
2018-05-21T13:37:56.515Z,30.92
2018-05-21T13:38:56.331Z,30.73
2018-05-21T13:39:56.304Z,30.27
2018-05-21T13:41:20.452Z,30.18
2018-05-21T13:42:22.857Z,30.16
2018-05-21T13:43:20.850Z,29.81
2018-05-21T13:44:22.413Z,29.61